sensor_id;sensor_type;location;lat;lon;timestamp;temperature;humidity
74617;DHT22;63123;50.906;4.198;2022-11-14T00:00:00;18.70;57.40
74617;DHT22;63123;50.906;4.198;2022-11-14T00:02:26;18.70;57.50
74617;DHT22;63123;50.906;4.198;2022-11-14T00:04:52;18.70;57.40
74617;DHT22;63123;50.906;4.198;2022-11-14T00:07:18;18.70;57.40
74617;DHT22;63123;50.906;4.198;2022-11-14T00:09:44;18.70;57.50
74617;DHT22;63123;50.906;4.198;2022-11-14T00:12:10;18.70;57.50
74617;DHT22;63123;50.906;4.198;2022-11-14T00:14:36;18.70;57.60
74617;DHT22;63123;50.906;4.198;2022-11-14T00:17:01;18.70;57.30
74617;DHT22;63123;50.906;4.198;2022-11-14T00:19:27;18.70;57.40
74617;DHT22;63123;50.906;4.198;2022-11-14T00:21:53;18.70;57.50
74617;DHT22;63123;50.906;4.198;2022-11-14T00:24:19;18.70;57.50
74617;DHT22;63123;50.906;4.198;2022-11-14T00:26:44;18.70;57.50
74617;DHT22;63123;50.906;4.198;2022-11-14T00:29:11;18.70;57.50
74617;DHT22;63123;50.906;4.198;2022-11-14T00:31:37;18.70;57.40
74617;DHT22;63123;50.906;4.198;2022-11-14T00:34:03;18.70;57.50
74617;DHT22;63123;50.906;4.198;2022-11-14T00:36:29;18.70;57.50
74617;DHT22;63123;50.906;4.198;2022-11-14T00:38:55;18.70;57.50
74617;DHT22;63123;50.906;4.198;2022-11-14T00:41:20;18.70;57.60
74617;DHT22;63123;50.906;4.198;2022-11-14T00:43:46;18.70;57.50
74617;DHT22;63123;50.906;4.198;2022-11-14T00:46:12;18.70;57.40
74617;DHT22;63123;50.906;4.198;2022-11-14T00:48:37;18.70;57.30
74617;DHT22;63123;50.906;4.198;2022-11-14T00:51:03;18.70;57.30
74617;DHT22;63123;50.906;4.198;2022-11-14T00:53:29;18.70;57.50
74617;DHT22;63123;50.906;4.198;2022-11-14T00:55:55;18.70;57.40
74617;DHT22;63123;50.906;4.198;2022-11-14T00:58:21;18.70;57.20
74617;DHT22;63123;50.906;4.198;2022-11-14T01:00:46;18.70;57.30
74617;DHT22;63123;50.906;4.198;2022-11-14T01:03:12;18.70;57.30
74617;DHT22;63123;50.906;4.198;2022-11-14T01:05:43;18.70;57.20
74617;DHT22;63123;50.906;4.198;2022-11-14T01:08:09;18.70;57.20
74617;DHT22;63123;50.906;4.198;2022-11-14T01:10:38;18.70;57.40
74617;DHT22;63123;50.906;4.198;2022-11-14T01:13:04;18.70;57.40
74617;DHT22;63123;50.906;4.198;2022-11-14T01:15:29;18.70;57.40
74617;DHT22;63123;50.906;4.198;2022-11-14T01:17:55;18.70;57.30
74617;DHT22;63123;50.906;4.198;2022-11-14T01:20:21;18.70;57.30
74617;DHT22;63123;50.906;4.198;2022-11-14T01:22:46;18.70;57.30
74617;DHT22;63123;50.906;4.198;2022-11-14T01:25:12;18.70;57.40
74617;DHT22;63123;50.906;4.198;2022-11-14T01:27:38;18.70;57.40
74617;DHT22;63123;50.906;4.198;2022-11-14T01:30:04;18.70;57.40
74617;DHT22;63123;50.906;4.198;2022-11-14T01:32:29;18.70;57.30
74617;DHT22;63123;50.906;4.198;2022-11-14T01:34:55;18.70;57.40
74617;DHT22;63123;50.906;4.198;2022-11-14T01:37:21;18.70;57.50
74617;DHT22;63123;50.906;4.198;2022-11-14T01:39:46;18.70;57.30
74617;DHT22;63123;50.906;4.198;2022-11-14T01:42:12;18.70;57.30
74617;DHT22;63123;50.906;4.198;2022-11-14T01:44:45;18.70;57.40
74617;DHT22;63123;50.906;4.198;2022-11-14T01:47:17;18.70;57.30
74617;DHT22;63123;50.906;4.198;2022-11-14T01:49:46;18.70;57.40
74617;DHT22;63123;50.906;4.198;2022-11-14T01:52:16;18.70;57.50
74617;DHT22;63123;50.906;4.198;2022-11-14T01:54:50;18.70;57.20
74617;DHT22;63123;50.906;4.198;2022-11-14T01:57:22;18.70;57.30
74617;DHT22;63123;50.906;4.198;2022-11-14T01:59:52;18.70;57.30
74617;DHT22;63123;50.906;4.198;2022-11-14T02:02:24;18.70;57.30
74617;DHT22;63123;50.906;4.198;2022-11-14T02:05:02;18.70;57.30
74617;DHT22;63123;50.906;4.198;2022-11-14T02:07:29;18.70;57.10
74617;DHT22;63123;50.906;4.198;2022-11-14T02:09:59;18.70;57.30
74617;DHT22;63123;50.906;4.198;2022-11-14T02:12:26;18.70;57.20
74617;DHT22;63123;50.906;4.198;2022-11-14T02:14:55;18.70;57.30
74617;DHT22;63123;50.906;4.198;2022-11-14T02:17:22;18.70;57.20
74617;DHT22;63123;50.906;4.198;2022-11-14T02:19:53;18.70;57.30
74617;DHT22;63123;50.906;4.198;2022-11-14T02:22:20;18.70;57.30
74617;DHT22;63123;50.906;4.198;2022-11-14T02:24:45;18.70;57.10
74617;DHT22;63123;50.906;4.198;2022-11-14T02:27:13;18.70;57.20
74617;DHT22;63123;50.906;4.198;2022-11-14T02:29:39;18.70;57.20
74617;DHT22;63123;50.906;4.198;2022-11-14T02:32:05;18.70;57.10
74617;DHT22;63123;50.906;4.198;2022-11-14T02:34:31;18.70;57.40
74617;DHT22;63123;50.906;4.198;2022-11-14T02:36:57;18.60;57.20
74617;DHT22;63123;50.906;4.198;2022-11-14T02:39:23;18.70;57.00
74617;DHT22;63123;50.906;4.198;2022-11-14T02:41:52;18.70;57.00
74617;DHT22;63123;50.906;4.198;2022-11-14T02:44:18;18.70;57.00
74617;DHT22;63123;50.906;4.198;2022-11-14T02:46:44;18.70;57.10
74617;DHT22;63123;50.906;4.198;2022-11-14T02:49:09;18.70;57.20
74617;DHT22;63123;50.906;4.198;2022-11-14T02:51:35;18.70;57.20
74617;DHT22;63123;50.906;4.198;2022-11-14T02:54:01;18.70;57.10
74617;DHT22;63123;50.906;4.198;2022-11-14T02:56:26;18.70;57.00
74617;DHT22;63123;50.906;4.198;2022-11-14T02:58:52;18.60;57.10
74617;DHT22;63123;50.906;4.198;2022-11-14T03:01:18;18.70;57.10
74617;DHT22;63123;50.906;4.198;2022-11-14T03:03:43;18.70;57.10
74617;DHT22;63123;50.906;4.198;2022-11-14T03:06:09;18.70;57.20
74617;DHT22;63123;50.906;4.198;2022-11-14T03:08:34;18.70;57.20
74617;DHT22;63123;50.906;4.198;2022-11-14T03:11:04;18.70;57.10
74617;DHT22;63123;50.906;4.198;2022-11-14T03:13:30;18.60;57.10
74617;DHT22;63123;50.906;4.198;2022-11-14T03:15:56;18.70;56.90
74617;DHT22;63123;50.906;4.198;2022-11-14T03:18:21;18.70;56.90
74617;DHT22;63123;50.906;4.198;2022-11-14T03:20:47;18.70;56.70
74617;DHT22;63123;50.906;4.198;2022-11-14T03:23:12;18.70;56.70
74617;DHT22;63123;50.906;4.198;2022-11-14T03:25:38;18.70;56.90
74617;DHT22;63123;50.906;4.198;2022-11-14T03:28:04;18.70;56.80
74617;DHT22;63123;50.906;4.198;2022-11-14T03:30:30;18.70;56.90
74617;DHT22;63123;50.906;4.198;2022-11-14T03:32:56;18.70;56.90
74617;DHT22;63123;50.906;4.198;2022-11-14T03:35:22;18.70;56.60
74617;DHT22;63123;50.906;4.198;2022-11-14T03:37:47;18.70;56.80
74617;DHT22;63123;50.906;4.198;2022-11-14T03:40:13;18.60;56.80
74617;DHT22;63123;50.906;4.198;2022-11-14T03:42:38;18.60;56.80
74617;DHT22;63123;50.906;4.198;2022-11-14T03:45:04;18.60;56.80
74617;DHT22;63123;50.906;4.198;2022-11-14T03:47:30;18.60;56.70
74617;DHT22;63123;50.906;4.198;2022-11-14T03:49:57;18.60;56.90
74617;DHT22;63123;50.906;4.198;2022-11-14T03:52:22;18.60;56.70
74617;DHT22;63123;50.906;4.198;2022-11-14T03:54:50;18.70;56.80
74617;DHT22;63123;50.906;4.198;2022-11-14T03:57:16;18.60;56.80
74617;DHT22;63123;50.906;4.198;2022-11-14T03:59:41;18.60;56.90
74617;DHT22;63123;50.906;4.198;2022-11-14T04:02:07;18.70;56.90
74617;DHT22;63123;50.906;4.198;2022-11-14T04:04:33;18.60;56.60
74617;DHT22;63123;50.906;4.198;2022-11-14T04:06:59;18.60;56.60
74617;DHT22;63123;50.906;4.198;2022-11-14T04:09:24;18.60;56.70
74617;DHT22;63123;50.906;4.198;2022-11-14T04:11:50;18.60;56.70
74617;DHT22;63123;50.906;4.198;2022-11-14T04:14:15;18.70;56.50
74617;DHT22;63123;50.906;4.198;2022-11-14T04:16:41;18.70;56.60
74617;DHT22;63123;50.906;4.198;2022-11-14T04:19:06;18.70;56.60
74617;DHT22;63123;50.906;4.198;2022-11-14T04:21:32;18.70;56.60
74617;DHT22;63123;50.906;4.198;2022-11-14T04:23:57;18.60;56.70
74617;DHT22;63123;50.906;4.198;2022-11-14T04:26:23;18.60;56.60
74617;DHT22;63123;50.906;4.198;2022-11-14T04:28:49;18.60;56.60
74617;DHT22;63123;50.906;4.198;2022-11-14T04:31:14;18.60;56.60
74617;DHT22;63123;50.906;4.198;2022-11-14T04:33:40;18.60;56.60
74617;DHT22;63123;50.906;4.198;2022-11-14T04:36:05;18.60;56.50
74617;DHT22;63123;50.906;4.198;2022-11-14T04:38:31;18.70;56.70
74617;DHT22;63123;50.906;4.198;2022-11-14T04:40:57;18.60;56.50
74617;DHT22;63123;50.906;4.198;2022-11-14T04:43:22;18.60;56.60
74617;DHT22;63123;50.906;4.198;2022-11-14T04:45:48;18.60;56.50
74617;DHT22;63123;50.906;4.198;2022-11-14T04:48:14;18.60;56.60
74617;DHT22;63123;50.906;4.198;2022-11-14T04:50:39;18.60;56.40
74617;DHT22;63123;50.906;4.198;2022-11-14T04:53:05;18.60;56.40
74617;DHT22;63123;50.906;4.198;2022-11-14T04:55:30;18.60;56.60
74617;DHT22;63123;50.906;4.198;2022-11-14T04:57:57;18.60;56.50
74617;DHT22;63123;50.906;4.198;2022-11-14T05:00:23;18.70;56.70
74617;DHT22;63123;50.906;4.198;2022-11-14T05:02:49;18.60;56.60
74617;DHT22;63123;50.906;4.198;2022-11-14T05:05:15;18.60;56.60
74617;DHT22;63123;50.906;4.198;2022-11-14T05:07:41;18.60;56.50
74617;DHT22;63123;50.906;4.198;2022-11-14T05:10:07;18.60;56.50
74617;DHT22;63123;50.906;4.198;2022-11-14T05:12:33;18.60;56.60
74617;DHT22;63123;50.906;4.198;2022-11-14T05:14:58;18.60;56.70
74617;DHT22;63123;50.906;4.198;2022-11-14T05:17:24;18.60;56.70
74617;DHT22;63123;50.906;4.198;2022-11-14T05:19:50;18.60;56.80
74617;DHT22;63123;50.906;4.198;2022-11-14T05:22:15;18.60;56.40
74617;DHT22;63123;50.906;4.198;2022-11-14T05:24:41;18.60;56.70
74617;DHT22;63123;50.906;4.198;2022-11-14T05:27:07;18.60;56.80
74617;DHT22;63123;50.906;4.198;2022-11-14T05:29:32;18.60;56.90
74617;DHT22;63123;50.906;4.198;2022-11-14T05:31:58;18.60;56.80
74617;DHT22;63123;50.906;4.198;2022-11-14T05:34:25;18.60;56.80
74617;DHT22;63123;50.906;4.198;2022-11-14T05:36:50;18.60;56.80
74617;DHT22;63123;50.906;4.198;2022-11-14T05:39:16;18.60;57.40
74617;DHT22;63123;50.906;4.198;2022-11-14T05:41:41;18.60;56.80
74617;DHT22;63123;50.906;4.198;2022-11-14T05:44:07;18.60;56.70
74617;DHT22;63123;50.906;4.198;2022-11-14T05:46:32;18.60;56.80
74617;DHT22;63123;50.906;4.198;2022-11-14T05:48:59;18.60;56.80
74617;DHT22;63123;50.906;4.198;2022-11-14T05:51:25;18.60;56.70
74617;DHT22;63123;50.906;4.198;2022-11-14T05:53:50;18.60;56.80
74617;DHT22;63123;50.906;4.198;2022-11-14T05:56:16;18.60;56.80
74617;DHT22;63123;50.906;4.198;2022-11-14T05:58:42;18.60;56.70
74617;DHT22;63123;50.906;4.198;2022-11-14T06:01:16;18.60;56.80
74617;DHT22;63123;50.906;4.198;2022-11-14T06:03:43;18.60;56.70
74617;DHT22;63123;50.906;4.198;2022-11-14T06:06:11;18.60;56.80
74617;DHT22;63123;50.906;4.198;2022-11-14T06:08:37;18.70;56.80
74617;DHT22;63123;50.906;4.198;2022-11-14T06:11:11;18.60;56.80
74617;DHT22;63123;50.906;4.198;2022-11-14T06:13:37;18.60;56.60
74617;DHT22;63123;50.906;4.198;2022-11-14T06:16:11;18.60;56.40
74617;DHT22;63123;50.906;4.198;2022-11-14T06:18:37;18.60;56.50
74617;DHT22;63123;50.906;4.198;2022-11-14T06:21:06;18.70;56.40
74617;DHT22;63123;50.906;4.198;2022-11-14T06:23:32;18.60;56.40
74617;DHT22;63123;50.906;4.198;2022-11-14T06:26:03;18.60;56.50
74617;DHT22;63123;50.906;4.198;2022-11-14T06:28:28;18.60;56.40
74617;DHT22;63123;50.906;4.198;2022-11-14T06:30:58;18.60;56.40
74617;DHT22;63123;50.906;4.198;2022-11-14T06:33:24;18.60;56.40
74617;DHT22;63123;50.906;4.198;2022-11-14T06:35:50;18.60;56.30
74617;DHT22;63123;50.906;4.198;2022-11-14T06:38:15;18.60;56.20
74617;DHT22;63123;50.906;4.198;2022-11-14T06:40:41;18.60;56.20
74617;DHT22;63123;50.906;4.198;2022-11-14T06:43:06;18.60;56.50
74617;DHT22;63123;50.906;4.198;2022-11-14T06:45:32;18.70;56.20
74617;DHT22;63123;50.906;4.198;2022-11-14T06:47:58;18.60;56.10
74617;DHT22;63123;50.906;4.198;2022-11-14T06:50:24;18.60;56.30
74617;DHT22;63123;50.906;4.198;2022-11-14T06:52:50;18.60;56.10
74617;DHT22;63123;50.906;4.198;2022-11-14T06:55:16;18.60;56.10
74617;DHT22;63123;50.906;4.198;2022-11-14T06:57:41;18.60;56.20
74617;DHT22;63123;50.906;4.198;2022-11-14T07:00:07;18.60;56.20
74617;DHT22;63123;50.906;4.198;2022-11-14T07:02:33;18.60;56.10
74617;DHT22;63123;50.906;4.198;2022-11-14T07:04:58;18.60;56.20
74617;DHT22;63123;50.906;4.198;2022-11-14T07:07:24;18.60;56.10
74617;DHT22;63123;50.906;4.198;2022-11-14T07:09:50;18.60;56.10
74617;DHT22;63123;50.906;4.198;2022-11-14T07:12:15;18.60;56.10
74617;DHT22;63123;50.906;4.198;2022-11-14T07:14:41;18.60;56.00
74617;DHT22;63123;50.906;4.198;2022-11-14T07:17:06;18.60;56.10
74617;DHT22;63123;50.906;4.198;2022-11-14T07:19:32;18.60;56.10
74617;DHT22;63123;50.906;4.198;2022-11-14T07:21:57;18.70;56.00
74617;DHT22;63123;50.906;4.198;2022-11-14T07:24:23;18.60;56.00
74617;DHT22;63123;50.906;4.198;2022-11-14T07:26:49;18.60;56.00
74617;DHT22;63123;50.906;4.198;2022-11-14T07:29:14;18.60;56.10
74617;DHT22;63123;50.906;4.198;2022-11-14T07:31:40;18.60;55.90
74617;DHT22;63123;50.906;4.198;2022-11-14T07:34:06;18.60;56.10
74617;DHT22;63123;50.906;4.198;2022-11-14T07:36:32;18.60;55.70
74617;DHT22;63123;50.906;4.198;2022-11-14T07:38:57;18.60;56.00
74617;DHT22;63123;50.906;4.198;2022-11-14T07:41:23;18.60;55.90
74617;DHT22;63123;50.906;4.198;2022-11-14T07:43:49;18.60;55.90
74617;DHT22;63123;50.906;4.198;2022-11-14T07:46:16;18.60;55.80
74617;DHT22;63123;50.906;4.198;2022-11-14T07:48:42;18.60;56.40
74617;DHT22;63123;50.906;4.198;2022-11-14T07:51:19;18.70;55.80
74617;DHT22;63123;50.906;4.198;2022-11-14T07:53:45;18.60;55.80
74617;DHT22;63123;50.906;4.198;2022-11-14T07:56:10;18.60;55.80
74617;DHT22;63123;50.906;4.198;2022-11-14T07:58:38;18.60;55.90
74617;DHT22;63123;50.906;4.198;2022-11-14T08:01:05;18.60;56.10
74617;DHT22;63123;50.906;4.198;2022-11-14T08:03:31;18.60;55.80
74617;DHT22;63123;50.906;4.198;2022-11-14T08:06:15;18.60;55.70
74617;DHT22;63123;50.906;4.198;2022-11-14T08:08:41;18.60;55.60
74617;DHT22;63123;50.906;4.198;2022-11-14T08:11:07;18.60;56.00
74617;DHT22;63123;50.906;4.198;2022-11-14T08:13:33;18.60;55.90
74617;DHT22;63123;50.906;4.198;2022-11-14T08:16:05;18.60;56.70
74617;DHT22;63123;50.906;4.198;2022-11-14T08:18:31;18.60;55.70
74617;DHT22;63123;50.906;4.198;2022-11-14T08:20:57;18.60;55.80
74617;DHT22;63123;50.906;4.198;2022-11-14T08:23:23;18.60;56.00
74617;DHT22;63123;50.906;4.198;2022-11-14T08:25:49;18.60;56.00
74617;DHT22;63123;50.906;4.198;2022-11-14T08:28:14;18.70;54.80
74617;DHT22;63123;50.906;4.198;2022-11-14T08:30:40;18.70;54.20
74617;DHT22;63123;50.906;4.198;2022-11-14T08:33:06;18.70;54.30
74617;DHT22;63123;50.906;4.198;2022-11-14T08:35:32;18.70;54.10
74617;DHT22;63123;50.906;4.198;2022-11-14T08:38:00;18.70;54.00
74617;DHT22;63123;50.906;4.198;2022-11-14T08:40:26;18.70;53.70
74617;DHT22;63123;50.906;4.198;2022-11-14T08:42:51;18.70;53.80
74617;DHT22;63123;50.906;4.198;2022-11-14T08:45:17;18.70;53.60
74617;DHT22;63123;50.906;4.198;2022-11-14T08:47:49;18.70;53.80
74617;DHT22;63123;50.906;4.198;2022-11-14T08:50:15;18.70;53.50
74617;DHT22;63123;50.906;4.198;2022-11-14T08:52:41;18.70;53.50
74617;DHT22;63123;50.906;4.198;2022-11-14T08:55:06;18.70;53.20
74617;DHT22;63123;50.906;4.198;2022-11-14T08:57:32;18.70;53.30
74617;DHT22;63123;50.906;4.198;2022-11-14T08:59:58;18.80;53.40
74617;DHT22;63123;50.906;4.198;2022-11-14T09:02:23;18.80;53.40
74617;DHT22;63123;50.906;4.198;2022-11-14T09:04:49;18.80;53.50
74617;DHT22;63123;50.906;4.198;2022-11-14T09:07:14;18.80;53.30
74617;DHT22;63123;50.906;4.198;2022-11-14T09:09:40;18.80;53.30
74617;DHT22;63123;50.906;4.198;2022-11-14T09:12:06;18.70;53.00
74617;DHT22;63123;50.906;4.198;2022-11-14T09:14:31;18.80;53.20
74617;DHT22;63123;50.906;4.198;2022-11-14T09:16:57;18.80;53.10
74617;DHT22;63123;50.906;4.198;2022-11-14T09:19:23;18.80;53.30
74617;DHT22;63123;50.906;4.198;2022-11-14T09:21:48;18.80;53.00
74617;DHT22;63123;50.906;4.198;2022-11-14T09:24:14;18.80;53.00
74617;DHT22;63123;50.906;4.198;2022-11-14T09:26:39;18.80;53.00
74617;DHT22;63123;50.906;4.198;2022-11-14T09:29:05;18.80;53.20
74617;DHT22;63123;50.906;4.198;2022-11-14T09:31:31;18.80;52.90
74617;DHT22;63123;50.906;4.198;2022-11-14T09:33:57;18.80;52.90
74617;DHT22;63123;50.906;4.198;2022-11-14T09:36:22;18.90;52.80
74617;DHT22;63123;50.906;4.198;2022-11-14T09:38:50;18.90;52.80
74617;DHT22;63123;50.906;4.198;2022-11-14T09:46:55;18.80;52.90
74617;DHT22;63123;50.906;4.198;2022-11-14T09:49:25;18.90;52.90
74617;DHT22;63123;50.906;4.198;2022-11-14T09:51:57;18.80;52.80
74617;DHT22;63123;50.906;4.198;2022-11-14T09:54:28;18.90;52.70
74617;DHT22;63123;50.906;4.198;2022-11-14T09:56:58;18.80;52.70
74617;DHT22;63123;50.906;4.198;2022-11-14T09:59:25;18.80;52.40
74617;DHT22;63123;50.906;4.198;2022-11-14T10:05:07;18.80;52.50
74617;DHT22;63123;50.906;4.198;2022-11-14T10:22:10;18.90;52.80
74617;DHT22;63123;50.906;4.198;2022-11-14T10:25:02;18.90;52.60
74617;DHT22;63123;50.906;4.198;2022-11-14T10:30:18;18.90;52.50
74617;DHT22;63123;50.906;4.198;2022-11-14T10:32:48;18.90;52.50
74617;DHT22;63123;50.906;4.198;2022-11-14T10:38:35;18.90;52.60
74617;DHT22;63123;50.906;4.198;2022-11-14T10:41:08;18.90;52.50
74617;DHT22;63123;50.906;4.198;2022-11-14T10:43:44;18.90;52.30
74617;DHT22;63123;50.906;4.198;2022-11-14T10:48:49;18.90;52.70
74617;DHT22;63123;50.906;4.198;2022-11-14T10:56:24;19.00;52.70
74617;DHT22;63123;50.906;4.198;2022-11-14T10:58:49;19.00;52.40
74617;DHT22;63123;50.906;4.198;2022-11-14T11:01:32;19.00;52.50
74617;DHT22;63123;50.906;4.198;2022-11-14T11:04:30;19.00;52.70
74617;DHT22;63123;50.906;4.198;2022-11-14T11:07:17;18.90;52.30
74617;DHT22;63123;50.906;4.198;2022-11-14T11:10:02;19.00;52.00
74617;DHT22;63123;50.906;4.198;2022-11-14T11:12:49;19.00;52.20
74617;DHT22;63123;50.906;4.198;2022-11-14T11:18:00;19.00;52.20
74617;DHT22;63123;50.906;4.198;2022-11-14T11:20:33;19.00;52.50
74617;DHT22;63123;50.906;4.198;2022-11-14T11:25:36;19.00;52.10
74617;DHT22;63123;50.906;4.198;2022-11-14T11:28:16;18.90;51.80
74617;DHT22;63123;50.906;4.198;2022-11-14T11:31:00;19.00;52.40
74617;DHT22;63123;50.906;4.198;2022-11-14T11:33:34;18.90;51.80
74617;DHT22;63123;50.906;4.198;2022-11-14T11:36:02;18.90;52.10
74617;DHT22;63123;50.906;4.198;2022-11-14T11:38:30;18.90;52.30
74617;DHT22;63123;50.906;4.198;2022-11-14T11:41:24;18.90;53.00
74617;DHT22;63123;50.906;4.198;2022-11-14T11:44:06;18.90;52.40
74617;DHT22;63123;50.906;4.198;2022-11-14T11:46:49;18.90;52.50
74617;DHT22;63123;50.906;4.198;2022-11-14T11:49:32;18.90;52.10
74617;DHT22;63123;50.906;4.198;2022-11-14T11:55:12;18.90;51.90
74617;DHT22;63123;50.906;4.198;2022-11-14T11:58:45;18.90;51.90
74617;DHT22;63123;50.906;4.198;2022-11-14T12:00:38;18.90;52.50
74617;DHT22;63123;50.906;4.198;2022-11-14T12:03:10;18.90;52.60
74617;DHT22;63123;50.906;4.198;2022-11-14T12:05:54;18.90;51.80
74617;DHT22;63123;50.906;4.198;2022-11-14T12:10:48;18.90;51.80
74617;DHT22;63123;50.906;4.198;2022-11-14T12:24:18;18.90;52.30
74617;DHT22;63123;50.906;4.198;2022-11-14T12:27:14;18.90;51.70
74617;DHT22;63123;50.906;4.198;2022-11-14T12:30:09;18.90;51.80
74617;DHT22;63123;50.906;4.198;2022-11-14T12:32:43;18.90;51.90
74617;DHT22;63123;50.906;4.198;2022-11-14T12:35:25;18.90;51.90
74617;DHT22;63123;50.906;4.198;2022-11-14T12:37:53;18.90;52.20
74617;DHT22;63123;50.906;4.198;2022-11-14T12:40:31;18.90;52.00
74617;DHT22;63123;50.906;4.198;2022-11-14T12:42:58;18.90;52.10
74617;DHT22;63123;50.906;4.198;2022-11-14T12:50:52;18.90;51.80
74617;DHT22;63123;50.906;4.198;2022-11-14T13:18:14;18.80;52.10
74617;DHT22;63123;50.906;4.198;2022-11-14T13:21:05;18.80;52.10
74617;DHT22;63123;50.906;4.198;2022-11-14T13:23:53;18.80;52.30
74617;DHT22;63123;50.906;4.198;2022-11-14T13:28:50;18.80;51.90
74617;DHT22;63123;50.906;4.198;2022-11-14T13:31:21;18.80;52.10
74617;DHT22;63123;50.906;4.198;2022-11-14T13:33:49;18.80;52.00
74617;DHT22;63123;50.906;4.198;2022-11-14T13:42:10;18.80;52.40
74617;DHT22;63123;50.906;4.198;2022-11-14T13:52:30;18.80;51.70
74617;DHT22;63123;50.906;4.198;2022-11-14T13:54:57;18.80;52.10
74617;DHT22;63123;50.906;4.198;2022-11-14T13:58:09;18.80;52.00
74617;DHT22;63123;50.906;4.198;2022-11-14T14:00:17;18.80;52.20
74617;DHT22;63123;50.906;4.198;2022-11-14T14:03:17;18.80;51.90
74617;DHT22;63123;50.906;4.198;2022-11-14T14:16:59;18.80;52.40
74617;DHT22;63123;50.906;4.198;2022-11-14T14:22:31;18.80;51.80
74617;DHT22;63123;50.906;4.198;2022-11-14T14:25:49;18.80;52.10
74617;DHT22;63123;50.906;4.198;2022-11-14T14:28:14;18.80;52.30
74617;DHT22;63123;50.906;4.198;2022-11-14T14:31:09;18.80;52.10
74617;DHT22;63123;50.906;4.198;2022-11-14T14:33:43;18.80;52.10
74617;DHT22;63123;50.906;4.198;2022-11-14T14:38:42;18.80;52.00
74617;DHT22;63123;50.906;4.198;2022-11-14T14:41:10;18.80;52.10
74617;DHT22;63123;50.906;4.198;2022-11-14T14:43:36;18.80;51.70
74617;DHT22;63123;50.906;4.198;2022-11-14T14:46:02;18.80;52.00
74617;DHT22;63123;50.906;4.198;2022-11-14T14:48:30;18.80;51.60
74617;DHT22;63123;50.906;4.198;2022-11-14T14:50:59;18.80;52.20
74617;DHT22;63123;50.906;4.198;2022-11-14T14:53:28;18.80;51.90
74617;DHT22;63123;50.906;4.198;2022-11-14T14:58:24;18.80;51.90
74617;DHT22;63123;50.906;4.198;2022-11-14T15:01:10;18.80;51.90
74617;DHT22;63123;50.906;4.198;2022-11-14T15:03:39;18.80;52.10
74617;DHT22;63123;50.906;4.198;2022-11-14T15:06:21;18.80;52.00
74617;DHT22;63123;50.906;4.198;2022-11-14T15:09:16;18.80;52.00
74617;DHT22;63123;50.906;4.198;2022-11-14T15:11:42;18.80;52.10
74617;DHT22;63123;50.906;4.198;2022-11-14T15:14:17;18.80;52.20
74617;DHT22;63123;50.906;4.198;2022-11-14T15:16:45;18.80;52.20
74617;DHT22;63123;50.906;4.198;2022-11-14T15:19:14;18.80;52.10
74617;DHT22;63123;50.906;4.198;2022-11-14T15:21:41;18.70;52.20
74617;DHT22;63123;50.906;4.198;2022-11-14T15:24:21;18.80;52.00
74617;DHT22;63123;50.906;4.198;2022-11-14T15:26:49;18.80;52.00
74617;DHT22;63123;50.906;4.198;2022-11-14T15:31:50;18.80;51.90
74617;DHT22;63123;50.906;4.198;2022-11-14T15:34:32;18.80;52.30
74617;DHT22;63123;50.906;4.198;2022-11-14T15:37:06;18.80;52.10
74617;DHT22;63123;50.906;4.198;2022-11-14T15:39:32;18.80;52.20
74617;DHT22;63123;50.906;4.198;2022-11-14T15:44:36;18.80;52.00
74617;DHT22;63123;50.906;4.198;2022-11-14T15:47:02;18.80;52.10
74617;DHT22;63123;50.906;4.198;2022-11-14T15:49:28;18.80;51.80
74617;DHT22;63123;50.906;4.198;2022-11-14T15:51:59;18.80;52.00
74617;DHT22;63123;50.906;4.198;2022-11-14T15:54:39;18.70;51.90
74617;DHT22;63123;50.906;4.198;2022-11-14T15:57:11;18.80;52.10
74617;DHT22;63123;50.906;4.198;2022-11-14T15:59:37;18.80;52.20
74617;DHT22;63123;50.906;4.198;2022-11-14T16:02:10;18.80;52.00
74617;DHT22;63123;50.906;4.198;2022-11-14T16:04:37;18.80;52.50
74617;DHT22;63123;50.906;4.198;2022-11-14T16:07:04;18.80;52.00
74617;DHT22;63123;50.906;4.198;2022-11-14T16:09:29;18.70;52.10
74617;DHT22;63123;50.906;4.198;2022-11-14T16:11:55;18.80;52.00
74617;DHT22;63123;50.906;4.198;2022-11-14T16:14:20;18.80;52.10
74617;DHT22;63123;50.906;4.198;2022-11-14T16:16:46;18.70;51.80
74617;DHT22;63123;50.906;4.198;2022-11-14T16:19:13;18.70;51.90
74617;DHT22;63123;50.906;4.198;2022-11-14T16:21:39;18.80;51.90
74617;DHT22;63123;50.906;4.198;2022-11-14T16:24:09;18.70;52.00
74617;DHT22;63123;50.906;4.198;2022-11-14T16:26:36;18.70;52.00
74617;DHT22;63123;50.906;4.198;2022-11-14T16:29:02;18.80;51.90
74617;DHT22;63123;50.906;4.198;2022-11-14T16:31:28;18.70;51.80
74617;DHT22;63123;50.906;4.198;2022-11-14T16:33:53;18.80;51.90
74617;DHT22;63123;50.906;4.198;2022-11-14T16:36:21;18.70;51.90
74617;DHT22;63123;50.906;4.198;2022-11-14T16:38:47;18.80;52.20
74617;DHT22;63123;50.906;4.198;2022-11-14T16:41:13;18.70;52.00
74617;DHT22;63123;50.906;4.198;2022-11-14T16:43:40;18.70;52.10
74617;DHT22;63123;50.906;4.198;2022-11-14T16:46:06;18.80;52.10
74617;DHT22;63123;50.906;4.198;2022-11-14T16:48:33;18.70;51.90
74617;DHT22;63123;50.906;4.198;2022-11-14T16:51:00;18.70;52.10
74617;DHT22;63123;50.906;4.198;2022-11-14T16:53:26;18.70;52.30
74617;DHT22;63123;50.906;4.198;2022-11-14T16:55:52;18.70;52.50
74617;DHT22;63123;50.906;4.198;2022-11-14T16:58:17;18.70;52.40
74617;DHT22;63123;50.906;4.198;2022-11-14T17:00:43;18.80;52.40
74617;DHT22;63123;50.906;4.198;2022-11-14T17:03:09;18.70;52.30
74617;DHT22;63123;50.906;4.198;2022-11-14T17:05:45;18.80;52.20
74617;DHT22;63123;50.906;4.198;2022-11-14T17:08:11;18.70;52.30
74617;DHT22;63123;50.906;4.198;2022-11-14T17:10:44;18.70;52.50
74617;DHT22;63123;50.906;4.198;2022-11-14T17:13:10;18.70;52.40
74617;DHT22;63123;50.906;4.198;2022-11-14T17:15:36;18.80;52.30
74617;DHT22;63123;50.906;4.198;2022-11-14T17:18:02;18.70;52.30
74617;DHT22;63123;50.906;4.198;2022-11-14T17:20:28;18.70;52.20
74617;DHT22;63123;50.906;4.198;2022-11-14T17:22:54;18.70;52.60
74617;DHT22;63123;50.906;4.198;2022-11-14T17:25:20;18.70;52.60
74617;DHT22;63123;50.906;4.198;2022-11-14T17:27:46;18.70;52.20
74617;DHT22;63123;50.906;4.198;2022-11-14T17:30:16;18.70;52.10
74617;DHT22;63123;50.906;4.198;2022-11-14T17:32:42;18.80;52.10
74617;DHT22;63123;50.906;4.198;2022-11-14T17:35:08;18.70;52.10
74617;DHT22;63123;50.906;4.198;2022-11-14T17:37:34;18.70;52.20
74617;DHT22;63123;50.906;4.198;2022-11-14T17:40:00;18.70;52.30
74617;DHT22;63123;50.906;4.198;2022-11-14T17:42:26;18.70;52.20
74617;DHT22;63123;50.906;4.198;2022-11-14T17:44:51;18.70;52.10
74617;DHT22;63123;50.906;4.198;2022-11-14T17:47:18;18.80;52.80